Terminal Aerodrome Forecast
Issued by NWS

Home | Current Version | Previous Version | Text Only | Print | Product List | Glossary On
Versions: 1 2 3 4 5 6 7 8 9 10 11 12 13 14
400
FTUS45 KMSO 261930 AAA
TAFSMN
TAF AMD
KSMN 261930Z 2620/2718 19008G15KT P6SM VCTS SCT070CB OVC090
      TEMPO 2620/2623 VRB15G25KT 4SM +TSRA
     FM270100 33009KT P6SM VCSH BKN100
     FM270300 VRB04KT P6SM SCT100
      AMD NOT SKED=

USA.gov is the U.S. government's official web portal to all federal, state and local government web resources and services.